Time;durP1;ratioP1;P1;durP2;ratioP2;P2;SDS_P1;SDS_P2;PMS_P1;PMS_P2;Temp;Humidity;BMP_temperature;BMP_pressure;BME280_temperature;BME280_humidity;BME280_pressure;Samples;Min_cycle;Max_cycle;Signal;HPM_P1;HPM_P2
2021/07/02 00:01:04;;;;;;;11.20;3.80;;;;;;;;;;8419392;27;20856;-70
2021/07/02 00:05:20;;;;;;;5.82;3.47;;;;;;;;;;8365690;27;20913;-69
2021/07/02 00:09:37;;;;;;;5.85;3.05;;;;;;;;;;8421022;27;20910;-68
2021/07/02 00:13:53;;;;;;;7.03;2.92;;;;;;;;;;8420032;27;20869;-68
2021/07/02 00:18:09;;;;;;;4.82;3.05;;;;;;;;;;8420645;27;20853;-69
2021/07/02 00:22:25;;;;;;;5.03;2.92;;;;;;;;;;8419504;27;20872;-72
2021/07/02 00:26:42;;;;;;;6.78;3.63;;;;;;;;;;8420640;27;20825;-68
2021/07/02 00:30:59;;;;;;;6.22;3.00;;;;;;;;;;8419440;27;20907;-69
2021/07/02 00:35:15;;;;;;;4.60;2.72;;;;;;;;;;8418903;27;21128;-69
2021/07/02 00:39:29;;;;;;;5.93;3.00;;;;;;;;;;8373989;27;1298247;-68
2021/07/02 00:43:50;;;;;;;4.70;2.70;;;;;;;;;;8418955;27;20876;-69
2021/07/02 00:48:04;;;;;;;4.18;2.55;;;;;;;;;;8377343;27;1247748;-68
2021/07/02 00:52:21;;;;;;;8.93;2.88;;;;;;;;;;8275443;27;4154095;-68
2021/07/02 00:56:37;;;;;;;6.70;2.72;;;;;;;;;;8377920;27;1252020;-69
2021/07/02 01:00:53;;;;;;;5.13;2.38;;;;;;;;;;8453943;27;21057;-68
2021/07/02 01:05:11;;;;;;;6.07;2.25;;;;;;;;;;8419868;27;21027;-69
2021/07/02 01:09:32;;;;;;;3.45;2.22;;;;;;;;;;8419917;27;20860;-69
2021/07/02 01:13:50;;;;;;;4.53;3.03;;;;;;;;;;8420014;27;21112;-70
2021/07/02 01:18:09;;;;;;;4.53;2.45;;;;;;;;;;8419722;27;20825;-68
2021/07/02 01:22:30;;;;;;;6.97;2.78;;;;;;;;;;8386981;27;20891;-68
2021/07/02 01:26:51;;;;;;;3.92;2.65;;;;;;;;;;8419942;27;20833;-68
2021/07/02 01:31:07;;;;;;;4.63;2.65;;;;;;;;;;8375687;27;1248925;-70
2021/07/02 01:35:25;;;;;;;6.53;2.70;;;;;;;;;;8421027;27;21031;-69
2021/07/02 01:39:43;;;;;;;7.32;3.15;;;;;;;;;;8420302;27;20565;-70
2021/07/02 01:44:00;;;;;;;3.92;2.63;;;;;;;;;;8421918;27;20825;-68
2021/07/02 01:48:17;;;;;;;4.32;2.50;;;;;;;;;;8385909;27;21029;-68
2021/07/02 01:52:35;;;;;;;4.72;2.83;;;;;;;;;;8421492;27;20553;-69
2021/07/02 01:56:51;;;;;;;8.20;3.10;;;;;;;;;;8377862;27;1258322;-68
2021/07/02 02:01:14;;;;;;;4.82;3.17;;;;;;;;;;8419618;27;21112;-69
2021/07/02 02:05:30;;;;;;;3.67;2.78;;;;;;;;;;8419842;27;20852;-69
2021/07/02 02:09:46;;;;;;;4.35;3.25;;;;;;;;;;8419856;27;20860;-69
2021/07/02 02:14:10;;;;;;;4.72;3.20;;;;;;;;;;8420409;27;20837;-70
2021/07/02 02:18:28;;;;;;;12.70;3.55;;;;;;;;;;8377447;27;1247056;-69
2021/07/02 02:22:46;;;;;;;5.05;3.20;;;;;;;;;;8419715;27;20874;-69
2021/07/02 02:27:01;;;;;;;7.60;3.58;;;;;;;;;;8377421;27;1259989;-68
2021/07/02 02:31:19;;;;;;;4.65;3.35;;;;;;;;;;8419621;27;21123;-69
2021/07/02 02:35:41;;;;;;;11.43;3.15;;;;;;;;;;8386391;27;20879;-68
2021/07/02 02:39:59;;;;;;;7.30;3.30;;;;;;;;;;8419404;27;21031;-68
2021/07/02 02:44:14;;;;;;;4.97;3.08;;;;;;;;;;8378405;27;1255641;-69
2021/07/02 02:48:32;;;;;;;4.00;3.15;;;;;;;;;;8419743;27;20553;-69
2021/07/02 02:52:49;;;;;;;4.32;3.00;;;;;;;;;;8419898;27;21041;-68
2021/07/02 02:57:09;;;;;;;3.92;2.95;;;;;;;;;;8419639;27;21031;-68
2021/07/02 03:01:29;;;;;;;6.95;3.47;;;;;;;;;;8385916;27;20898;-68
2021/07/02 03:05:47;;;;;;;7.38;3.90;;;;;;;;;;8420974;27;20902;-68
2021/07/02 03:10:06;;;;;;;5.90;3.85;;;;;;;;;;8421338;27;20937;-68
2021/07/02 03:14:23;;;;;;;4.95;3.72;;;;;;;;;;8421997;27;20616;-69
2021/07/02 03:18:40;;;;;;;4.78;3.90;;;;;;;;;;8419894;27;20633;-69
2021/07/02 03:22:54;;;;;;;7.50;3.35;;;;;;;;;;8376719;27;1267282;-69
2021/07/02 03:27:12;;;;;;;4.72;3.88;;;;;;;;;;8420657;27;21115;-68
2021/07/02 03:31:29;;;;;;;7.75;3.72;;;;;;;;;;8379965;27;1240125;-69
2021/07/02 03:35:45;;;;;;;5.32;3.33;;;;;;;;;;8378731;27;1259430;-69
2021/07/02 03:40:09;;;;;;;4.20;3.75;;;;;;;;;;8419968;27;20909;-69
2021/07/02 03:44:29;;;;;;;6.15;4.20;;;;;;;;;;8419918;27;20852;-69
2021/07/02 03:48:47;;;;;;;7.20;4.32;;;;;;;;;;8419389;27;20905;-68
2021/07/02 03:53:05;;;;;;;7.70;3.75;;;;;;;;;;8419386;27;21119;-69
2021/07/02 03:57:22;;;;;;;6.82;3.63;;;;;;;;;;8419404;27;21059;-69
2021/07/02 04:01:39;;;;;;;5.07;4.45;;;;;;;;;;8419286;27;20557;-69
2021/07/02 04:05:55;;;;;;;9.05;4.20;;;;;;;;;;8419065;27;20886;-69
2021/07/02 04:10:11;;;;;;;9.88;3.80;;;;;;;;;;8419451;27;20905;-69
2021/07/02 04:14:27;;;;;;;7.20;4.13;;;;;;;;;;8377016;27;1270918;-68
2021/07/02 04:18:45;;;;;;;5.80;3.85;;;;;;;;;;8419948;27;21135;-69
2021/07/02 04:23:01;;;;;;;4.82;4.15;;;;;;;;;;8420944;27;21047;-69
2021/07/02 04:27:18;;;;;;;5.85;4.60;;;;;;;;;;8420996;27;21131;-68
2021/07/02 04:31:35;;;;;;;7.78;4.03;;;;;;;;;;8420804;27;21031;-70
2021/07/02 04:35:52;;;;;;;7.03;4.53;;;;;;;;;;8419569;27;20906;-70
2021/07/02 04:40:11;;;;;;;5.10;4.00;;;;;;;;;;8419920;27;20825;-69
2021/07/02 04:44:28;;;;;;;4.72;4.15;;;;;;;;;;8420467;27;21115;-69
2021/07/02 04:48:46;;;;;;;8.98;3.90;;;;;;;;;;8421787;27;20929;-68
2021/07/02 04:53:03;;;;;;;6.45;3.90;;;;;;;;;;8419374;27;20891;-71
2021/07/02 04:57:21;;;;;;;7.47;4.05;;;;;;;;;;8419949;27;20896;-69
2021/07/02 05:01:36;;;;;;;5.30;4.13;;;;;;;;;;8420152;27;21063;-69
2021/07/02 05:05:52;;;;;;;9.75;3.65;;;;;;;;;;8385689;27;20839;-68
2021/07/02 05:10:10;;;;;;;4.20;2.70;;;;;;;;;;8422637;27;20561;-69
2021/07/02 05:14:25;;;;;;;4.60;2.30;;;;;;;;;;8378561;27;1248433;-69
2021/07/02 05:18:43;;;;;;;6.93;2.70;;;;;;;;;;8418718;27;21051;-68
2021/07/02 05:22:56;;;;;;;5.70;2.80;;;;;;;;;;8378126;27;1242127;-70
2021/07/02 05:27:11;;;;;;;5.05;2.90;;;;;;;;;;8377521;27;1247768;-70
2021/07/02 05:31:25;;;;;;;4.60;2.60;;;;;;;;;;8380515;27;1242823;-69
2021/07/02 05:35:41;;;;;;;5.32;2.90;;;;;;;;;;8419149;27;20561;-69
2021/07/02 05:39:58;;;;;;;2.10;1.90;;;;;;;;;;8419931;27;20822;-69
2021/07/02 05:44:19;;;;;;;13.73;2.30;;;;;;;;;;8419606;27;20913;-69
2021/07/02 05:48:35;;;;;;;4.30;1.92;;;;;;;;;;8420124;27;20538;-70
2021/07/02 05:52:54;;;;;;;5.03;2.20;;;;;;;;;;8455456;27;21110;-69
2021/07/02 05:57:09;;;;;;;1.98;1.42;;;;;;;;;;8378079;27;1261282;-70
2021/07/02 06:01:26;;;;;;;2.15;1.50;;;;;;;;;;8423322;27;21083;-69
2021/07/02 06:05:43;;;;;;;5.10;2.08;;;;;;;;;;8419566;27;20921;-69
2021/07/02 06:09:59;;;;;;;3.33;1.35;;;;;;;;;;8420790;27;20613;-69
2021/07/02 06:14:16;;;;;;;5.90;2.22;;;;;;;;;;8423369;27;21119;-69
2021/07/02 06:18:32;;;;;;;4.88;1.98;;;;;;;;;;8388184;27;21145;-69
2021/07/02 06:22:48;;;;;;;4.15;2.13;;;;;;;;;;8420873;27;20618;-69
2021/07/02 06:27:05;;;;;;;2.70;1.88;;;;;;;;;;8421273;27;20894;-70
2021/07/02 06:31:22;;;;;;;3.78;2.17;;;;;;;;;;8424695;27;21135;-69
2021/07/02 06:35:40;;;;;;;5.00;2.22;;;;;;;;;;8422142;27;20870;-69
2021/07/02 06:39:55;;;;;;;4.90;2.25;;;;;;;;;;8378226;27;1271780;-69
2021/07/02 06:44:11;;;;;;;3.67;2.15;;;;;;;;;;8422266;27;21043;-69
2021/07/02 06:48:27;;;;;;;2.97;1.63;;;;;;;;;;8377980;27;1262613;-70
2021/07/02 06:52:43;;;;;;;2.95;1.90;;;;;;;;;;8454860;27;20885;-70
2021/07/02 06:57:02;;;;;;;2.33;1.50;;;;;;;;;;8420423;27;20897;-68
2021/07/02 07:01:18;;;;;;;4.70;1.50;;;;;;;;;;8421625;27;20901;-70
2021/07/02 07:05:35;;;;;;;3.47;1.90;;;;;;;;;;8376950;27;1274922;-68
2021/07/02 07:09:51;;;;;;;4.32;1.70;;;;;;;;;;8420473;27;20906;-69
2021/07/02 07:14:05;;;;;;;3.78;1.58;;;;;;;;;;8376240;27;1272028;-69
2021/07/02 07:18:21;;;;;;;5.00;1.58;;;;;;;;;;8386410;27;21138;-69
2021/07/02 07:22:38;;;;;;;4.85;1.50;;;;;;;;;;8389803;27;20950;-70
2021/07/02 07:27:39;;;;;;;1.83;1.45;;;;;;;;;;8420255;27;21135;-70
2021/07/02 07:31:56;;;;;;;2.80;1.50;;;;;;;;;;8422668;27;20830;-69
2021/07/02 07:36:15;;;;;;;2.38;1.77;;;;;;;;;;8378771;27;1265230;-69
2021/07/02 07:40:31;;;;;;;4.55;1.42;;;;;;;;;;8379140;27;1269936;-69
2021/07/02 07:44:48;;;;;;;5.07;1.88;;;;;;;;;;8419530;27;21201;-68
2021/07/02 07:49:05;;;;;;;1.90;1.45;;;;;;;;;;8419906;27;20545;-70
2021/07/02 07:53:20;;;;;;;4.30;1.42;;;;;;;;;;8377065;27;1264914;-69
2021/07/02 07:57:37;;;;;;;1.27;1.08;;;;;;;;;;8418761;27;20917;-69
2021/07/02 08:01:54;;;;;;;1.25;0.90;;;;;;;;;;8422195;27;20860;-69
2021/07/02 08:06:11;;;;;;;3.63;0.98;;;;;;;;;;8419218;27;21066;-69
2021/07/02 08:10:26;;;;;;;3.70;1.48;;;;;;;;;;8379602;27;1258882;-69
2021/07/02 08:14:41;;;;;;;4.00;1.30;;;;;;;;;;8377554;27;1276392;-69
2021/07/02 08:18:59;;;;;;;1.80;1.40;;;;;;;;;;8422929;27;20565;-69
2021/07/02 08:23:16;;;;;;;2.85;2.13;;;;;;;;;;8422055;27;20915;-69
2021/07/02 08:27:35;;;;;;;1.63;1.30;;;;;;;;;;8377424;27;1267513;-70
2021/07/02 08:31:52;;;;;;;1.52;1.17;;;;;;;;;;8421065;27;21095;-69
2021/07/02 08:36:08;;;;;;;2.10;1.40;;;;;;;;;;8421684;27;20844;-69
2021/07/02 08:40:24;;;;;;;1.55;1.20;;;;;;;;;;8422467;27;20853;-69
2021/07/02 08:44:40;;;;;;;2.17;1.25;;;;;;;;;;8421308;27;20906;-70
2021/07/02 08:48:56;;;;;;;1.70;1.50;;;;;;;;;;8422737;27;21054;-69
2021/07/02 08:53:11;;;;;;;2.00;1.30;;;;;;;;;;8378257;27;1289496;-71
2021/07/02 08:57:27;;;;;;;2.40;1.52;;;;;;;;;;8420067;27;20597;-69
2021/07/02 09:01:43;;;;;;;2.58;1.88;;;;;;;;;;8420538;27;20554;-69
2021/07/02 09:06:11;;;;;;;2.00;1.50;;;;;;;;;;8421033;27;20568;-69
2021/07/02 09:10:34;;;;;;;1.30;1.20;;;;;;;;;;8379674;27;1256874;-69
2021/07/02 09:15:09;;;;;;;6.72;1.20;;;;;;;;;;8381198;27;1269974;-69
2021/07/02 09:19:29;;;;;;;3.00;1.55;;;;;;;;;;8422508;27;20869;-68
2021/07/02 09:23:45;;;;;;;1.83;1.30;;;;;;;;;;8420527;27;20829;-70
2021/07/02 09:28:06;;;;;;;1.40;1.17;;;;;;;;;;8420745;27;21125;-69
2021/07/02 09:32:21;;;;;;;1.88;1.40;;;;;;;;;;8390334;27;20981;-68
2021/07/02 09:36:38;;;;;;;2.80;1.30;;;;;;;;;;8421568;27;20912;-69
2021/07/02 09:40:56;;;;;;;1.80;1.27;;;;;;;;;;8421190;27;20638;-69
2021/07/02 09:45:19;;;;;;;1.98;1.10;;;;;;;;;;8380758;27;1259571;-69
2021/07/02 09:49:37;;;;;;;1.60;1.17;;;;;;;;;;8420356;27;20550;-69
2021/07/02 09:53:43;;;;;;;2.00;1.30;;;;;;;;;;8385029;28;20373;-69
2021/07/02 09:57:48;;;;;;;2.75;1.00;;;;;;;;;;8387187;28;20044;-71
2021/07/02 10:02:20;;;;;;;1.60;1.30;;;;;;;;;;8387329;28;20461;-69
2021/07/02 10:06:27;;;;;;;1.80;1.20;;;;;;;;;;8386671;28;20452;-70
2021/07/02 10:10:33;;;;;;;6.03;1.00;;;;;;;;;;8403521;27;20338;-71
2021/07/02 10:14:38;;;;;;;3.97;1.05;;;;;;;;;;8367558;28;20051;-71
2021/07/02 10:18:51;;;;;;;1.08;0.95;;;;;;;;;;8384910;28;20438;-70
2021/07/02 10:23:00;;;;;;;1.38;1.05;;;;;;;;;;8388138;28;20450;-69
2021/07/02 10:27:05;;;;;;;3.45;0.90;;;;;;;;;;8383780;28;20055;-70
2021/07/02 10:31:12;;;;;;;1.45;0.90;;;;;;;;;;8384667;28;20485;-68
2021/07/02 10:35:18;;;;;;;1.67;0.90;;;;;;;;;;8385726;28;20368;-70
2021/07/02 10:39:35;;;;;;;2.60;1.08;;;;;;;;;;8383310;28;20392;-69
2021/07/02 10:44:11;;;;;;;1.77;0.90;;;;;;;;;;8385498;28;20341;-69
2021/07/02 10:48:17;;;;;;;3.85;0.82;;;;;;;;;;8363351;28;20112;-70
2021/07/02 10:52:27;;;;;;;1.40;0.90;;;;;;;;;;8383651;28;20401;-69
2021/07/02 10:56:33;;;;;;;3.90;1.08;;;;;;;;;;8383441;28;20496;-70
2021/07/02 11:01:12;;;;;;;0.85;0.80;;;;;;;;;;8362328;28;20493;-69
2021/07/02 11:05:29;;;;;;;1.40;0.85;;;;;;;;;;8360739;28;20469;-69
2021/07/02 11:09:49;;;;;;;1.15;0.90;;;;;;;;;;8359819;28;20453;-70
2021/07/02 11:14:09;;;;;;;1.40;1.20;;;;;;;;;;8361361;28;20374;-69
2021/07/02 11:18:17;;;;;;;1.83;0.90;;;;;;;;;;8342640;28;20344;-69
2021/07/02 11:22:26;;;;;;;2.90;0.90;;;;;;;;;;8359183;28;20478;-69
2021/07/02 11:26:43;;;;;;;0.88;0.80;;;;;;;;;;8361203;28;20466;-69
2021/07/02 11:30:49;;;;;;;1.00;0.90;;;;;;;;;;8358955;28;20477;-70
2021/07/02 11:35:21;;;;;;;0.80;0.80;;;;;;;;;;8362564;28;20061;-69
2021/07/02 11:39:27;;;;;;;2.97;1.00;;;;;;;;;;8360846;28;20043;-70
2021/07/02 11:43:41;;;;;;;0.70;0.70;;;;;;;;;;8361582;28;20484;-70
2021/07/02 11:47:47;;;;;;;1.20;1.00;;;;;;;;;;8358949;28;20048;-69
2021/07/02 11:51:53;;;;;;;1.35;1.02;;;;;;;;;;8362267;28;20484;-71
2021/07/02 11:56:08;;;;;;;4.07;0.90;;;;;;;;;;8359938;28;20483;-69
2021/07/02 12:00:15;;;;;;;1.27;0.80;;;;;;;;;;8357872;28;20417;-69
2021/07/02 12:04:21;;;;;;;1.30;0.90;;;;;;;;;;8359936;28;20990;-69
2021/07/02 12:08:29;;;;;;;1.23;1.10;;;;;;;;;;8360511;28;20051;-69
2021/07/02 12:12:35;;;;;;;1.02;0.93;;;;;;;;;;8359955;28;20348;-70
2021/07/02 12:16:47;;;;;;;2.83;1.05;;;;;;;;;;8361325;28;20477;-69
2021/07/02 12:21:07;;;;;;;1.05;0.95;;;;;;;;;;8358989;28;20648;-69
2021/07/02 12:25:12;;;;;;;0.90;0.70;;;;;;;;;;8360218;28;20051;-69
2021/07/02 12:29:17;;;;;;;4.03;0.80;;;;;;;;;;8358859;28;20061;-69
2021/07/02 12:33:22;;;;;;;1.05;0.80;;;;;;;;;;8358366;28;20043;-70
2021/07/02 12:37:28;;;;;;;1.13;0.88;;;;;;;;;;8359154;28;20388;-70
2021/07/02 12:41:49;;;;;;;5.20;0.90;;;;;;;;;;8360720;28;20370;-69
2021/07/02 12:45:55;;;;;;;4.65;1.10;;;;;;;;;;8359320;28;20471;-69
2021/07/02 12:50:03;;;;;;;1.15;0.98;;;;;;;;;;8359000;28;20470;-69
2021/07/02 12:58:37;;;;;;;3.00;1.63;;;;;;;;;;8332157;28;20326;-68
2021/07/02 13:02:51;;;;;;;1.90;1.20;;;;;;;;;;8360189;28;20047;-69
2021/07/02 13:06:58;;;;;;;1.25;1.10;;;;;;;;;;8358437;28;20339;-69
2021/07/02 13:11:21;;;;;;;2.03;1.23;;;;;;;;;;8356101;28;20354;-69
2021/07/02 13:15:26;;;;;;;2.17;0.80;;;;;;;;;;8357904;28;20378;-69
2021/07/02 13:19:31;;;;;;;1.90;1.20;;;;;;;;;;8357826;28;20463;-70
2021/07/02 13:23:55;;;;;;;2.17;1.45;;;;;;;;;;8357258;28;20474;-70
2021/07/02 13:28:01;;;;;;;1.80;1.25;;;;;;;;;;8356090;28;20446;-70
2021/07/02 13:32:07;;;;;;;1.80;1.20;;;;;;;;;;8358373;28;20477;-69
2021/07/02 13:36:13;;;;;;;3.72;1.17;;;;;;;;;;8356507;28;20061;-70
2021/07/02 13:40:42;;;;;;;1.20;1.00;;;;;;;;;;8355146;28;20450;-70
2021/07/02 13:44:59;;;;;;;3.00;1.30;;;;;;;;;;8356899;28;20354;-71
2021/07/02 13:49:06;;;;;;;1.40;1.10;;;;;;;;;;8356871;28;20488;-69
2021/07/02 13:53:21;;;;;;;3.92;1.23;;;;;;;;;;8356332;28;20367;-70
2021/07/02 13:57:27;;;;;;;1.83;1.10;;;;;;;;;;8338524;28;20343;-69
2021/07/02 14:01:32;;;;;;;3.45;1.02;;;;;;;;;;8354768;28;20069;-69
2021/07/02 14:05:40;;;;;;;0.90;0.90;;;;;;;;;;8358427;28;20040;-69
2021/07/02 14:09:45;;;;;;;1.45;1.00;;;;;;;;;;8339081;28;20373;-70
2021/07/02 14:13:50;;;;;;;1.23;1.05;;;;;;;;;;8359912;28;20352;-71
2021/07/02 14:17:56;;;;;;;3.20;1.40;;;;;;;;;;8356482;28;20493;-69
2021/07/02 14:22:01;;;;;;;5.38;1.45;;;;;;;;;;8357171;28;20447;-69
2021/07/02 14:26:06;;;;;;;2.80;1.10;;;;;;;;;;8355599;28;20353;-70
2021/07/02 14:30:13;;;;;;;1.10;0.85;;;;;;;;;;8354561;28;20043;-72
2021/07/02 14:34:18;;;;;;;1.65;1.15;;;;;;;;;;8358875;28;20396;-69
2021/07/02 14:38:24;;;;;;;1.65;1.25;;;;;;;;;;8344129;28;20492;-69
2021/07/02 14:42:29;;;;;;;2.55;1.00;;;;;;;;;;8360138;28;20350;-70
2021/07/02 14:46:34;;;;;;;2.17;1.40;;;;;;;;;;8360192;28;20043;-68
2021/07/02 14:50:41;;;;;;;2.67;1.30;;;;;;;;;;8360672;28;20048;-70
2021/07/02 14:54:47;;;;;;;3.33;1.58;;;;;;;;;;8361684;28;20059;-68
2021/07/02 14:58:53;;;;;;;1.33;1.00;;;;;;;;;;8362202;28;20055;-71
2021/07/02 15:02:57;;;;;;;3.08;1.17;;;;;;;;;;8360619;28;20043;-69
2021/07/02 15:07:03;;;;;;;3.70;1.20;;;;;;;;;;8359183;28;20059;-69
2021/07/02 15:11:08;;;;;;;2.85;1.90;;;;;;;;;;8360007;28;20047;-69
2021/07/02 15:15:13;;;;;;;1.10;1.00;;;;;;;;;;8358596;28;20070;-69
2021/07/02 15:19:18;;;;;;;2.58;1.75;;;;;;;;;;8358860;28;20358;-69
2021/07/02 15:23:24;;;;;;;1.70;1.20;;;;;;;;;;8362959;28;20344;-69
2021/07/02 15:27:29;;;;;;;6.20;1.30;;;;;;;;;;8358514;28;20043;-69
2021/07/02 15:32:29;;;;;;;1.40;1.00;;;;;;;;;;8359444;28;20489;-70
2021/07/02 15:36:35;;;;;;;1.65;1.40;;;;;;;;;;8359750;28;20478;-69
2021/07/02 15:40:42;;;;;;;1.33;1.13;;;;;;;;;;8359376;28;20451;-69
2021/07/02 15:44:48;;;;;;;3.13;1.30;;;;;;;;;;8360392;28;20466;-68
2021/07/02 15:48:52;;;;;;;1.13;1.00;;;;;;;;;;8358860;28;20501;-69
2021/07/02 15:52:57;;;;;;;1.17;1.02;;;;;;;;;;8359070;28;20485;-68
2021/07/02 15:57:12;;;;;;;1.65;1.10;;;;;;;;;;8358403;28;20434;-70
2021/07/02 16:01:17;;;;;;;3.03;1.00;;;;;;;;;;8340518;28;20043;-69
2021/07/02 16:05:23;;;;;;;1.90;1.63;;;;;;;;;;8358219;28;20485;-69
2021/07/02 16:09:38;;;;;;;1.20;1.10;;;;;;;;;;8359484;28;20507;-69
2021/07/02 16:13:43;;;;;;;2.70;1.30;;;;;;;;;;8358209;28;20048;-68
2021/07/02 16:17:49;;;;;;;2.55;1.30;;;;;;;;;;8359816;28;20370;-70
2021/07/02 16:21:55;;;;;;;1.77;1.20;;;;;;;;;;8359515;28;20449;-69
2021/07/02 16:26:00;;;;;;;3.83;1.00;;;;;;;;;;8356382;28;20350;-69
2021/07/02 16:30:08;;;;;;;1.63;1.10;;;;;;;;;;8358531;28;20067;-69
2021/07/02 16:34:14;;;;;;;3.20;1.10;;;;;;;;;;8358200;28;20530;-68
2021/07/02 16:38:20;;;;;;;1.48;1.13;;;;;;;;;;8357800;28;20370;-68
2021/07/02 16:42:25;;;;;;;1.77;1.00;;;;;;;;;;8358705;28;20379;-69
2021/07/02 16:46:30;;;;;;;3.90;1.10;;;;;;;;;;8340298;28;20070;-69
2021/07/02 16:50:38;;;;;;;4.07;1.33;;;;;;;;;;8340545;28;20370;-69
2021/07/02 16:54:43;;;;;;;3.67;1.23;;;;;;;;;;8355378;28;20478;-69
2021/07/02 16:58:48;;;;;;;2.60;1.33;;;;;;;;;;8338037;28;20351;-69
2021/07/02 17:02:53;;;;;;;1.98;1.15;;;;;;;;;;8357361;28;20504;-68
2021/07/02 17:06:59;;;;;;;1.60;1.20;;;;;;;;;;8357978;28;20354;-71
2021/07/02 17:11:04;;;;;;;4.07;0.90;;;;;;;;;;8357036;28;20042;-69
2021/07/02 17:15:10;;;;;;;1.27;0.93;;;;;;;;;;8354588;28;20484;-70
2021/07/02 17:19:15;;;;;;;5.70;1.20;;;;;;;;;;8358311;28;20340;-69
2021/07/02 17:23:20;;;;;;;2.22;1.30;;;;;;;;;;8355574;28;20516;-70
2021/07/02 17:27:46;;;;;;;1.85;1.00;;;;;;;;;;8357290;28;20397;-69
2021/07/02 17:31:52;;;;;;;2.75;0.90;;;;;;;;;;8336906;28;20413;-70
2021/07/02 17:35:58;;;;;;;2.93;1.00;;;;;;;;;;8355343;28;20476;-70
2021/07/02 17:40:07;;;;;;;2.40;1.15;;;;;;;;;;8356415;28;20478;-71
2021/07/02 17:44:12;;;;;;;2.53;1.17;;;;;;;;;;8355426;28;20462;-70
2021/07/02 17:48:18;;;;;;;2.75;1.33;;;;;;;;;;8355978;28;20055;-69
2021/07/02 17:52:23;;;;;;;7.03;1.38;;;;;;;;;;8337854;28;20043;-69
2021/07/02 17:56:28;;;;;;;2.20;1.50;;;;;;;;;;8358304;28;20368;-70
2021/07/02 18:00:35;;;;;;;2.15;1.33;;;;;;;;;;8338724;28;20396;-69
2021/07/02 18:04:40;;;;;;;3.00;1.80;;;;;;;;;;8337981;28;20039;-69
2021/07/02 18:08:46;;;;;;;3.42;1.95;;;;;;;;;;8358644;28;20322;-69
2021/07/02 18:12:53;;;;;;;4.40;2.38;;;;;;;;;;8361524;28;20044;-70
2021/07/02 18:16:59;;;;;;;2.40;1.65;;;;;;;;;;8362726;27;20051;-70
2021/07/02 18:21:06;;;;;;;3.50;2.03;;;;;;;;;;8360804;28;20452;-69
2021/07/02 18:25:14;;;;;;;3.03;1.85;;;;;;;;;;8362268;28;20455;-70
2021/07/02 18:29:19;;;;;;;2.45;1.90;;;;;;;;;;8362187;28;20462;-70
2021/07/02 18:33:24;;;;;;;2.97;2.13;;;;;;;;;;8362019;28;20475;-69
2021/07/02 18:37:29;;;;;;;5.53;1.95;;;;;;;;;;8359887;28;20399;-69
2021/07/02 18:41:35;;;;;;;3.15;2.15;;;;;;;;;;8361789;28;20039;-70
2021/07/02 18:45:40;;;;;;;2.83;2.08;;;;;;;;;;8362156;28;20465;-69
2021/07/02 18:49:46;;;;;;;2.88;2.05;;;;;;;;;;8360952;28;20351;-69
2021/07/02 18:53:52;;;;;;;3.13;2.00;;;;;;;;;;8362146;28;20454;-71
2021/07/02 18:57:58;;;;;;;3.47;2.40;;;;;;;;;;8361423;28;20488;-70
2021/07/02 19:02:04;;;;;;;6.32;3.10;;;;;;;;;;8362373;28;20032;-70
2021/07/02 19:06:07;;;;;;;5.38;3.15;;;;;;;;;;8361022;28;20484;-70
2021/07/02 19:10:13;;;;;;;4.40;2.60;;;;;;;;;;8361594;28;20538;-70
2021/07/02 19:14:20;;;;;;;6.45;3.70;;;;;;;;;;8362966;28;20044;-70
2021/07/02 19:18:25;;;;;;;8.52;4.65;;;;;;;;;;8359734;28;20430;-69
2021/07/02 19:22:30;;;;;;;12.45;4.05;;;;;;;;;;8358430;28;20409;-70
2021/07/02 19:26:37;;;;;;;8.10;3.33;;;;;;;;;;8360337;28;20494;-70
2021/07/02 19:30:42;;;;;;;6.65;2.97;;;;;;;;;;8361378;28;20359;-69
2021/07/02 19:34:48;;;;;;;5.15;3.42;;;;;;;;;;8377530;27;20480;-69
2021/07/02 19:38:56;;;;;;;5.35;3.10;;;;;;;;;;8360012;28;20343;-69
2021/07/02 19:43:00;;;;;;;7.50;2.40;;;;;;;;;;8361270;28;20458;-67
2021/07/02 19:47:06;;;;;;;5.40;2.53;;;;;;;;;;8357816;28;20382;-69
2021/07/02 19:51:12;;;;;;;3.20;2.58;;;;;;;;;;8360100;28;20477;-70
2021/07/02 19:55:18;;;;;;;5.07;2.53;;;;;;;;;;8359776;28;20474;-67
2021/07/02 19:59:23;;;;;;;3.92;2.63;;;;;;;;;;8340873;28;20489;-69
2021/07/02 20:03:28;;;;;;;4.97;2.47;;;;;;;;;;8358889;28;20407;-68
2021/07/02 20:07:33;;;;;;;3.30;2.38;;;;;;;;;;8359324;28;20047;-69
2021/07/02 20:11:39;;;;;;;4.30;2.60;;;;;;;;;;8357723;28;20470;-68
2021/07/02 20:15:45;;;;;;;3.80;2.55;;;;;;;;;;8357761;28;20477;-69
2021/07/02 20:19:49;;;;;;;5.30;2.92;;;;;;;;;;8359102;28;20110;-68
2021/07/02 20:23:54;;;;;;;5.05;3.15;;;;;;;;;;8358908;28;20451;-68
2021/07/02 20:27:59;;;;;;;7.35;3.30;;;;;;;;;;8360302;28;20066;-68
2021/07/02 20:32:04;;;;;;;4.65;2.83;;;;;;;;;;8333605;28;20366;-68
2021/07/02 20:36:11;;;;;;;;;;;;;;;;;;8323896;28;20505;-68
2021/07/02 20:40:17;;;;;;;6.15;3.10;;;;;;;;;;8323181;28;19920;-69
2021/07/02 20:44:22;;;;;;;3.55;2.80;;;;;;;;;;8323039;28;20044;-68
2021/07/02 20:48:27;;;;;;;4.72;2.85;;;;;;;;;;8323478;28;20370;-68
2021/07/02 20:52:33;;;;;;;5.03;3.22;;;;;;;;;;8326250;28;20362;-69
2021/07/02 20:56:39;;;;;;;8.32;3.03;;;;;;;;;;8324488;28;20056;-69
2021/07/02 21:00:49;;;;;;;4.68;3.22;;;;;;;;;;8323198;28;20058;-68
2021/07/02 21:04:55;;;;;;;4.70;3.25;;;;;;;;;;8322791;28;20355;-68
2021/07/02 21:09:00;;;;;;;5.28;3.58;;;;;;;;;;8321796;28;20066;-68
2021/07/02 21:13:06;;;;;;;6.00;3.40;;;;;;;;;;8322935;28;20044;-69
2021/07/02 21:17:11;;;;;;;4.70;3.50;;;;;;;;;;8324172;28;20070;-67
2021/07/02 21:21:16;;;;;;;5.10;3.47;;;;;;;;;;8321947;28;20447;-68
2021/07/02 21:25:21;;;;;;;6.90;3.45;;;;;;;;;;8321037;28;20074;-67
2021/07/02 21:29:28;;;;;;;7.03;3.30;;;;;;;;;;8323230;28;20369;-68
2021/07/02 21:33:33;;;;;;;5.45;3.40;;;;;;;;;;8323068;28;20480;-68
2021/07/02 21:37:39;;;;;;;6.00;3.20;;;;;;;;;;8324606;28;20351;-68
2021/07/02 21:41:44;;;;;;;7.63;3.65;;;;;;;;;;8323850;28;20338;-68
2021/07/02 21:45:49;;;;;;;7.55;4.20;;;;;;;;;;8322768;28;20059;-69
2021/07/02 21:49:55;;;;;;;6.75;3.60;;;;;;;;;;8322868;28;20347;-68
2021/07/02 21:54:00;;;;;;;5.38;3.70;;;;;;;;;;8322985;28;20398;-68
2021/07/02 21:58:05;;;;;;;6.60;3.35;;;;;;;;;;8323743;28;20063;-68
2021/07/02 22:02:10;;;;;;;9.20;3.80;;;;;;;;;;8323315;28;20509;-69
2021/07/02 22:06:16;;;;;;;4.80;3.80;;;;;;;;;;8324080;28;20355;-68
2021/07/02 22:10:20;;;;;;;6.72;4.13;;;;;;;;;;8322818;28;20048;-69
2021/07/02 22:14:25;;;;;;;4.75;3.25;;;;;;;;;;8322405;28;20466;-69
2021/07/02 22:18:31;;;;;;;5.68;3.42;;;;;;;;;;8323389;28;20451;-69
2021/07/02 22:22:36;;;;;;;5.80;3.72;;;;;;;;;;8321867;28;20070;-69
2021/07/02 22:26:42;;;;;;;4.10;2.85;;;;;;;;;;8320480;28;20479;-69
2021/07/02 22:30:47;;;;;;;5.65;3.33;;;;;;;;;;8322882;28;20446;-70
2021/07/02 22:34:52;;;;;;;5.93;2.97;;;;;;;;;;8320962;28;20493;-67
2021/07/02 22:39:01;;;;;;;8.05;3.80;;;;;;;;;;8321841;28;20048;-69
2021/07/02 22:43:06;;;;;;;4.47;3.20;;;;;;;;;;8319692;28;20044;-70
2021/07/02 22:47:12;;;;;;;7.55;3.60;;;;;;;;;;8304352;28;20482;-71
2021/07/02 22:51:17;;;;;;;4.70;3.45;;;;;;;;;;8322529;28;20048;-69
2021/07/02 22:55:22;;;;;;;4.93;3.25;;;;;;;;;;8322878;28;20479;-69
2021/07/02 22:59:27;;;;;;;4.35;2.88;;;;;;;;;;8293502;28;20375;-70
2021/07/02 23:03:32;;;;;;;5.43;3.25;;;;;;;;;;8327654;28;20048;-69
2021/07/02 23:07:37;;;;;;;6.45;3.90;;;;;;;;;;8327964;28;20067;-69
2021/07/02 23:11:43;;;;;;;5.70;3.03;;;;;;;;;;8327318;28;20381;-69
2021/07/02 23:15:48;;;;;;;8.10;3.13;;;;;;;;;;8310074;28;20390;-69
2021/07/02 23:19:54;;;;;;;5.57;3.15;;;;;;;;;;8325978;28;20481;-69
2021/07/02 23:23:59;;;;;;;4.57;3.47;;;;;;;;;;8325198;28;20075;-69
2021/07/02 23:28:05;;;;;;;5.57;3.30;;;;;;;;;;8327640;28;20378;-69
2021/07/02 23:32:10;;;;;;;5.25;3.00;;;;;;;;;;8327780;28;20420;-70
2021/07/02 23:36:16;;;;;;;4.85;3.30;;;;;;;;;;8325580;28;20048;-69
2021/07/02 23:40:21;;;;;;;6.18;3.63;;;;;;;;;;8326268;28;20375;-69
2021/07/02 23:44:26;;;;;;;5.18;3.50;;;;;;;;;;8325371;28;20450;-70
2021/07/02 23:48:31;;;;;;;5.32;3.50;;;;;;;;;;8325314;28;20463;-70
2021/07/02 23:52:37;;;;;;;5.45;3.47;;;;;;;;;;8326618;28;20367;-69
2021/07/02 23:56:42;;;;;;;7.30;3.70;;;;;;;;;;8328036;28;20370;-70
